sensor_id;sensor_type;location;lat;lon;timestamp;pressure;altitude;pressure_sealevel;temperature;humidity
62548;BME280;48602;45.192;5.722;2023-03-04T00:01:41;99648.94;;;6.83;58.60
62548;BME280;48602;45.192;5.722;2023-03-04T00:04:07;99647.16;;;6.85;58.72
62548;BME280;48602;45.192;5.722;2023-03-04T00:06:32;99651.44;;;6.87;58.25
62548;BME280;48602;45.192;5.722;2023-03-04T00:08:58;99654.91;;;6.89;58.50
62548;BME280;48602;45.192;5.722;2023-03-04T00:11:30;99656.66;;;6.90;58.43
62548;BME280;48602;45.192;5.722;2023-03-04T00:13:56;99650.50;;;6.93;58.33
62548;BME280;48602;45.192;5.722;2023-03-04T00:16:22;99663.56;;;6.96;58.43
62548;BME280;48602;45.192;5.722;2023-03-04T00:18:54;99657.41;;;6.97;58.25
62548;BME280;48602;45.192;5.722;2023-03-04T00:21:20;99661.75;;;6.99;58.87
62548;BME280;48602;45.192;5.722;2023-03-04T00:23:46;99658.22;;;7.02;58.42
62548;BME280;48602;45.192;5.722;2023-03-04T00:26:12;99663.47;;;7.02;58.30
62548;BME280;48602;45.192;5.722;2023-03-04T00:28:38;99661.66;;;7.04;58.84
62548;BME280;48602;45.192;5.722;2023-03-04T00:31:08;99654.63;;;7.06;58.56
62548;BME280;48602;45.192;5.722;2023-03-04T00:33:33;99665.06;;;7.09;58.47
62548;BME280;48602;45.192;5.722;2023-03-04T00:35:59;99656.31;;;7.10;58.20
62548;BME280;48602;45.192;5.722;2023-03-04T00:38:25;99665.09;;;7.08;58.24
62548;BME280;48602;45.192;5.722;2023-03-04T00:40:50;99659.88;;;7.06;58.33
62548;BME280;48602;45.192;5.722;2023-03-04T00:43:16;99655.50;;;7.05;58.44
62548;BME280;48602;45.192;5.722;2023-03-04T00:45:41;99651.16;;;7.04;58.76
62548;BME280;48602;45.192;5.722;2023-03-04T00:48:07;99651.16;;;7.04;58.80
62548;BME280;48602;45.192;5.722;2023-03-04T00:50:32;99654.63;;;7.06;58.62
62548;BME280;48602;45.192;5.722;2023-03-04T00:52:57;99648.50;;;7.07;58.58
62548;BME280;48602;45.192;5.722;2023-03-04T00:55:23;99651.13;;;7.07;58.64
62548;BME280;48602;45.192;5.722;2023-03-04T00:57:49;99641.50;;;7.06;58.43
62548;BME280;48602;45.192;5.722;2023-03-04T01:00:15;99640.63;;;7.07;58.42
62548;BME280;48602;45.192;5.722;2023-03-04T01:02:40;99646.72;;;7.08;58.46
62548;BME280;48602;45.192;5.722;2023-03-04T01:05:06;99638.88;;;7.08;58.33
62548;BME280;48602;45.192;5.722;2023-03-04T01:07:35;99639.72;;;7.10;58.32
62548;BME280;48602;45.192;5.722;2023-03-04T01:10:01;99633.56;;;7.12;57.98
62548;BME280;48602;45.192;5.722;2023-03-04T01:12:26;99631.75;;;7.16;58.41
62548;BME280;48602;45.192;5.722;2023-03-04T01:14:52;99628.25;;;7.17;58.28
62548;BME280;48602;45.192;5.722;2023-03-04T01:17:18;99629.94;;;7.19;58.90
62548;BME280;48602;45.192;5.722;2023-03-04T01:19:43;99627.31;;;7.19;58.46
62548;BME280;48602;45.192;5.722;2023-03-04T01:22:10;99625.56;;;7.20;58.33
62548;BME280;48602;45.192;5.722;2023-03-04T01:24:38;99619.47;;;7.19;58.60
62548;BME280;48602;45.192;5.722;2023-03-04T01:27:03;99622.88;;;7.21;58.21
62548;BME280;48602;45.192;5.722;2023-03-04T01:29:29;99617.63;;;7.21;59.24
62548;BME280;48602;45.192;5.722;2023-03-04T01:31:54;99617.63;;;7.23;59.39
62548;BME280;48602;45.192;5.722;2023-03-04T01:34:19;99613.25;;;7.22;59.77
62548;BME280;48602;45.192;5.722;2023-03-04T01:36:45;99616.72;;;7.24;59.85
62548;BME280;48602;45.192;5.722;2023-03-04T01:39:10;99616.69;;;7.25;59.13
62548;BME280;48602;45.192;5.722;2023-03-04T01:41:35;99615.81;;;7.26;59.16
62548;BME280;48602;45.192;5.722;2023-03-04T01:44:01;99619.28;;;7.27;58.68
62548;BME280;48602;45.192;5.722;2023-03-04T01:46:28;99615.81;;;7.26;58.49
62548;BME280;48602;45.192;5.722;2023-03-04T01:48:54;99612.25;;;7.29;58.27
62548;BME280;48602;45.192;5.722;2023-03-04T01:51:20;99608.78;;;7.28;58.19
62548;BME280;48602;45.192;5.722;2023-03-04T01:53:47;99599.19;;;7.27;58.35
62548;BME280;48602;45.192;5.722;2023-03-04T02:01:47;99601.75;;;7.30;58.72
62548;BME280;48602;45.192;5.722;2023-03-04T02:04:15;99602.63;;;7.29;58.85
62548;BME280;48602;45.192;5.722;2023-03-04T02:06:41;99607.13;;;7.23;59.14
62548;BME280;48602;45.192;5.722;2023-03-04T02:09:06;99604.63;;;7.17;59.32
62548;BME280;48602;45.192;5.722;2023-03-04T02:11:33;99606.50;;;7.10;60.26
62548;BME280;48602;45.192;5.722;2023-03-04T02:13:59;99600.53;;;7.04;60.14
62548;BME280;48602;45.192;5.722;2023-03-04T02:16:24;99601.50;;;6.96;60.19
62548;BME280;48602;45.192;5.722;2023-03-04T02:18:50;99595.44;;;6.93;60.09
62548;BME280;48602;45.192;5.722;2023-03-04T02:21:28;99596.38;;;6.89;60.04
62548;BME280;48602;45.192;5.722;2023-03-04T02:24:21;99594.75;;;6.85;60.30
62548;BME280;48602;45.192;5.722;2023-03-04T02:26:48;99598.31;;;6.79;60.07
62548;BME280;48602;45.192;5.722;2023-03-04T02:29:21;99596.59;;;6.77;60.47
62548;BME280;48602;45.192;5.722;2023-03-04T02:31:49;99600.16;;;6.73;60.23
62548;BME280;48602;45.192;5.722;2023-03-04T02:34:18;99603.72;;;6.70;60.51
62548;BME280;48602;45.192;5.722;2023-03-04T02:36:45;99598.50;;;6.70;60.63
62548;BME280;48602;45.192;5.722;2023-03-04T02:39:24;99594.13;;;6.69;60.24
62548;BME280;48602;45.192;5.722;2023-03-04T02:41:53;99584.53;;;6.70;60.48
62548;BME280;48602;45.192;5.722;2023-03-04T02:44:22;99587.09;;;6.71;60.22
62548;BME280;48602;45.192;5.722;2023-03-04T02:46:49;99582.69;;;6.73;60.38
62548;BME280;48602;45.192;5.722;2023-03-04T02:49:16;99590.53;;;6.75;60.32
62548;BME280;48602;45.192;5.722;2023-03-04T02:51:41;99581.75;;;6.77;60.57
62548;BME280;48602;45.192;5.722;2023-03-04T02:54:17;99576.44;;;6.82;60.42
62548;BME280;48602;45.192;5.722;2023-03-04T02:56:48;99577.25;;;6.85;60.30
62548;BME280;48602;45.192;5.722;2023-03-04T02:59:14;99577.19;;;6.88;60.65
62548;BME280;48602;45.192;5.722;2023-03-04T03:01:40;99575.41;;;6.89;59.78
62548;BME280;48602;45.192;5.722;2023-03-04T03:04:05;99572.78;;;6.90;60.06
62548;BME280;48602;45.192;5.722;2023-03-04T03:06:31;99572.75;;;6.92;60.17
62548;BME280;48602;45.192;5.722;2023-03-04T03:08:56;99569.22;;;6.94;59.73
62548;BME280;48602;45.192;5.722;2023-03-04T03:11:23;99572.66;;;6.98;60.06
62548;BME280;48602;45.192;5.722;2023-03-04T03:13:48;99572.66;;;6.98;59.74
62548;BME280;48602;45.192;5.722;2023-03-04T03:16:14;99571.72;;;7.00;59.79
62548;BME280;48602;45.192;5.722;2023-03-04T03:18:39;99569.13;;;7.00;59.74
62548;BME280;48602;45.192;5.722;2023-03-04T03:21:09;99570.81;;;7.03;60.09
62548;BME280;48602;45.192;5.722;2023-03-04T03:23:35;99565.53;;;7.05;59.92
62548;BME280;48602;45.192;5.722;2023-03-04T03:26:01;99564.59;;;7.07;59.49
62548;BME280;48602;45.192;5.722;2023-03-04T03:28:27;99567.19;;;7.09;59.46
62548;BME280;48602;45.192;5.722;2023-03-04T03:30:53;99566.28;;;7.11;59.41
62548;BME280;48602;45.192;5.722;2023-03-04T03:33:18;99569.75;;;7.13;59.46
62548;BME280;48602;45.192;5.722;2023-03-04T03:35:44;99574.09;;;7.14;59.55
62548;BME280;48602;45.192;5.722;2023-03-04T03:38:09;99573.22;;;7.14;60.31
62548;BME280;48602;45.192;5.722;2023-03-04T03:40:34;99569.72;;;7.15;60.41
62548;BME280;48602;45.192;5.722;2023-03-04T03:43:00;99574.94;;;7.16;60.38
62548;BME280;48602;45.192;5.722;2023-03-04T03:45:25;99575.78;;;7.18;60.07
62548;BME280;48602;45.192;5.722;2023-03-04T03:47:51;99579.22;;;7.20;60.15
62548;BME280;48602;45.192;5.722;2023-03-04T03:50:16;99573.94;;;7.22;60.05
62548;BME280;48602;45.192;5.722;2023-03-04T03:52:42;99581.78;;;7.23;59.82
62548;BME280;48602;45.192;5.722;2023-03-04T03:55:07;99578.22;;;7.26;59.82
62548;BME280;48602;45.192;5.722;2023-03-04T03:57:33;99585.19;;;7.28;59.91
62548;BME280;48602;45.192;5.722;2023-03-04T03:59:58;99574.69;;;7.28;60.17
62548;BME280;48602;45.192;5.722;2023-03-04T04:02:24;99577.31;;;7.28;59.95
62548;BME280;48602;45.192;5.722;2023-03-04T04:04:55;99575.50;;;7.32;59.91
62548;BME280;48602;45.192;5.722;2023-03-04T04:07:22;99579.88;;;7.31;59.54
62548;BME280;48602;45.192;5.722;2023-03-04T04:09:47;99579.84;;;7.33;59.62
62548;BME280;48602;45.192;5.722;2023-03-04T04:12:14;99576.38;;;7.31;60.01
62548;BME280;48602;45.192;5.722;2023-03-04T04:14:41;99579.91;;;7.30;60.25
62548;BME280;48602;45.192;5.722;2023-03-04T04:17:06;99573.81;;;7.28;60.50
62548;BME280;48602;45.192;5.722;2023-03-04T04:19:32;99577.38;;;7.25;60.60
62548;BME280;48602;45.192;5.722;2023-03-04T04:21:57;99578.25;;;7.24;60.34
62548;BME280;48602;45.192;5.722;2023-03-04T04:24:23;99579.13;;;7.25;60.98
62548;BME280;48602;45.192;5.722;2023-03-04T04:26:52;99581.78;;;7.23;61.30
62548;BME280;48602;45.192;5.722;2023-03-04T04:29:19;99589.63;;;7.23;60.98
62548;BME280;48602;45.192;5.722;2023-03-04T04:31:44;99587.94;;;7.21;61.47
62548;BME280;48602;45.192;5.722;2023-03-04T04:34:09;99590.63;;;7.18;60.77
62548;BME280;48602;45.192;5.722;2023-03-04T04:36:35;99589.81;;;7.16;60.78
62548;BME280;48602;45.192;5.722;2023-03-04T04:39:00;99594.19;;;7.15;60.60
62548;BME280;48602;45.192;5.722;2023-03-04T04:41:33;99589.78;;;7.17;60.70
62548;BME280;48602;45.192;5.722;2023-03-04T04:44:00;99590.63;;;7.18;60.49
62548;BME280;48602;45.192;5.722;2023-03-04T04:46:25;99597.59;;;7.20;60.43
62548;BME280;48602;45.192;5.722;2023-03-04T04:48:54;99590.53;;;7.22;60.18
62548;BME280;48602;45.192;5.722;2023-03-04T04:51:20;99591.41;;;7.23;60.34
62548;BME280;48602;45.192;5.722;2023-03-04T04:53:45;99587.88;;;7.24;60.39
62548;BME280;48602;45.192;5.722;2023-03-04T04:56:16;99590.47;;;7.25;60.18
62548;BME280;48602;45.192;5.722;2023-03-04T04:58:43;99594.81;;;7.26;60.33
62548;BME280;48602;45.192;5.722;2023-03-04T05:01:08;99585.19;;;7.27;60.05
62548;BME280;48602;45.192;5.722;2023-03-04T05:03:36;99585.19;;;7.28;60.17
62548;BME280;48602;45.192;5.722;2023-03-04T05:06:03;99580.81;;;7.27;59.93
62548;BME280;48602;45.192;5.722;2023-03-04T05:08:28;99591.31;;;7.27;59.94
62548;BME280;48602;45.192;5.722;2023-03-04T05:10:54;99592.19;;;7.28;60.21
62548;BME280;48602;45.192;5.722;2023-03-04T05:13:19;99586.03;;;7.29;60.05
62548;BME280;48602;45.192;5.722;2023-03-04T05:15:45;99586.91;;;7.29;59.85
62548;BME280;48602;45.192;5.722;2023-03-04T05:18:11;99590.38;;;7.31;59.59
62548;BME280;48602;45.192;5.722;2023-03-04T05:20:36;99593.84;;;7.32;59.83
62548;BME280;48602;45.192;5.722;2023-03-04T05:23:02;99599.97;;;7.32;59.71
62548;BME280;48602;45.192;5.722;2023-03-04T05:25:28;99592.97;;;7.33;59.93
62548;BME280;48602;45.192;5.722;2023-03-04T05:27:56;99603.44;;;7.34;60.08
62548;BME280;48602;45.192;5.722;2023-03-04T05:30:22;99596.44;;;7.33;59.90
62548;BME280;48602;45.192;5.722;2023-03-04T05:32:47;99606.06;;;7.34;60.06
62548;BME280;48602;45.192;5.722;2023-03-04T05:35:12;99599.06;;;7.33;59.80
62548;BME280;48602;45.192;5.722;2023-03-04T05:37:38;99608.66;;;7.34;59.80
62548;BME280;48602;45.192;5.722;2023-03-04T05:40:04;99600.81;;;7.34;59.89
62548;BME280;48602;45.192;5.722;2023-03-04T05:42:29;99607.81;;;7.34;59.88
62548;BME280;48602;45.192;5.722;2023-03-04T05:44:55;99609.59;;;7.32;60.13
62548;BME280;48602;45.192;5.722;2023-03-04T05:47:20;99610.47;;;7.32;59.94
62548;BME280;48602;45.192;5.722;2023-03-04T05:49:46;99607.84;;;7.32;60.08
62548;BME280;48602;45.192;5.722;2023-03-04T05:52:11;99607.88;;;7.31;60.17
62548;BME280;48602;45.192;5.722;2023-03-04T05:54:36;99609.56;;;7.33;60.06
62548;BME280;48602;45.192;5.722;2023-03-04T05:57:02;99601.69;;;7.33;60.11
62548;BME280;48602;45.192;5.722;2023-03-04T05:59:27;99601.69;;;7.33;60.24
62548;BME280;48602;45.192;5.722;2023-03-04T06:01:53;99607.78;;;7.35;60.34
62548;BME280;48602;45.192;5.722;2023-03-04T06:04:18;99605.16;;;7.35;60.45
62548;BME280;48602;45.192;5.722;2023-03-04T06:06:44;99607.78;;;7.35;59.98
62548;BME280;48602;45.192;5.722;2023-03-04T06:09:13;99614.75;;;7.37;60.41
62548;BME280;48602;45.192;5.722;2023-03-04T06:11:40;99616.50;;;7.36;60.34
62548;BME280;48602;45.192;5.722;2023-03-04T06:14:05;99617.41;;;7.35;60.27
62548;BME280;48602;45.192;5.722;2023-03-04T06:16:31;99615.69;;;7.34;60.35
62548;BME280;48602;45.192;5.722;2023-03-04T06:19:08;99627.06;;;7.33;60.34
62548;BME280;48602;45.192;5.722;2023-03-04T06:21:36;99621.81;;;7.33;60.41
62548;BME280;48602;45.192;5.722;2023-03-04T06:24:02;99621.78;;;7.34;60.57
62548;BME280;48602;45.192;5.722;2023-03-04T06:26:27;99626.16;;;7.34;60.54
62548;BME280;48602;45.192;5.722;2023-03-04T06:28:58;99628.75;;;7.35;60.30
62548;BME280;48602;45.192;5.722;2023-03-04T06:31:24;99635.75;;;7.37;60.66
62548;BME280;48602;45.192;5.722;2023-03-04T06:33:50;99629.63;;;7.36;60.60
62548;BME280;48602;45.192;5.722;2023-03-04T06:36:15;99630.50;;;7.37;60.74
62548;BME280;48602;45.192;5.722;2023-03-04T06:38:40;99626.13;;;7.35;60.70
62548;BME280;48602;45.192;5.722;2023-03-04T06:41:08;99637.41;;;7.39;60.60
62548;BME280;48602;45.192;5.722;2023-03-04T06:43:34;99638.25;;;7.41;60.86
62548;BME280;48602;45.192;5.722;2023-03-04T06:45:59;99637.34;;;7.42;60.48
62548;BME280;48602;45.192;5.722;2023-03-04T06:48:25;99639.13;;;7.42;60.41
62548;BME280;48602;45.192;5.722;2023-03-04T06:50:51;99634.75;;;7.41;60.59
62548;BME280;48602;45.192;5.722;2023-03-04T06:53:16;99640.91;;;7.40;60.28
62548;BME280;48602;45.192;5.722;2023-03-04T06:56:00;99646.16;;;7.40;60.49
62548;BME280;48602;45.192;5.722;2023-03-04T06:58:26;99650.50;;;7.41;60.50
62548;BME280;48602;45.192;5.722;2023-03-04T07:00:52;99648.75;;;7.41;60.85
62548;BME280;48602;45.192;5.722;2023-03-04T07:03:17;99647.84;;;7.42;60.88
62548;BME280;48602;45.192;5.722;2023-03-04T07:05:43;99651.28;;;7.46;60.66
62548;BME280;48602;45.192;5.722;2023-03-04T07:08:08;99654.75;;;7.48;60.83
62548;BME280;48602;45.192;5.722;2023-03-04T07:10:33;99655.63;;;7.48;60.87
62548;BME280;48602;45.192;5.722;2023-03-04T07:13:00;99661.72;;;7.49;60.69
62548;BME280;48602;45.192;5.722;2023-03-04T07:15:25;99647.69;;;7.51;60.62
62548;BME280;48602;45.192;5.722;2023-03-04T07:17:51;99657.28;;;7.54;60.80
62548;BME280;48602;45.192;5.722;2023-03-04T07:20:18;99652.84;;;7.54;60.77
62548;BME280;48602;45.192;5.722;2023-03-04T07:22:43;99658.06;;;7.57;60.83
62548;BME280;48602;45.192;5.722;2023-03-04T07:25:29;99658.88;;;7.59;60.62
62548;BME280;48602;45.192;5.722;2023-03-04T07:27:54;99656.25;;;7.59;60.67
62548;BME280;48602;45.192;5.722;2023-03-04T07:30:23;99664.97;;;7.61;60.78
62548;BME280;48602;45.192;5.722;2023-03-04T07:32:49;99671.09;;;7.62;60.62
62548;BME280;48602;45.192;5.722;2023-03-04T07:35:14;99663.19;;;7.63;60.72
62548;BME280;48602;45.192;5.722;2023-03-04T07:37:41;99664.00;;;7.67;60.73
62548;BME280;48602;45.192;5.722;2023-03-04T07:40:08;99663.94;;;7.70;60.90
62548;BME280;48602;45.192;5.722;2023-03-04T07:42:33;99670.91;;;7.71;60.72
62548;BME280;48602;45.192;5.722;2023-03-04T07:44:59;99672.63;;;7.72;60.59
62548;BME280;48602;45.192;5.722;2023-03-04T07:47:26;99673.47;;;7.74;60.63
62548;BME280;48602;45.192;5.722;2023-03-04T07:49:51;99671.69;;;7.76;60.55
62548;BME280;48602;45.192;5.722;2023-03-04T07:52:17;99670.78;;;7.77;60.53
62548;BME280;48602;45.192;5.722;2023-03-04T07:54:43;99673.38;;;7.79;60.52
62548;BME280;48602;45.192;5.722;2023-03-04T07:57:08;99677.69;;;7.83;60.34
62548;BME280;48602;45.192;5.722;2023-03-04T07:59:34;99672.44;;;7.83;60.45
62548;BME280;48602;45.192;5.722;2023-03-04T08:01:59;99674.03;;;7.88;60.65
62548;BME280;48602;45.192;5.722;2023-03-04T08:04:24;99676.63;;;7.91;60.40
62548;BME280;48602;45.192;5.722;2023-03-04T08:06:50;99680.94;;;7.94;60.36
62548;BME280;48602;45.192;5.722;2023-03-04T08:09:15;99685.31;;;7.95;60.44
62548;BME280;48602;45.192;5.722;2023-03-04T08:11:42;99680.03;;;7.96;60.57
62548;BME280;48602;45.192;5.722;2023-03-04T08:14:10;99686.97;;;7.99;60.53
62548;BME280;48602;45.192;5.722;2023-03-04T08:16:36;99689.56;;;8.00;60.24
62548;BME280;48602;45.192;5.722;2023-03-04T08:19:02;99690.41;;;8.02;60.18
62548;BME280;48602;45.192;5.722;2023-03-04T08:21:29;99687.75;;;8.04;60.18
62548;BME280;48602;45.192;5.722;2023-03-04T08:23:57;99691.19;;;8.06;60.23
62548;BME280;48602;45.192;5.722;2023-03-04T08:26:26;99694.66;;;8.08;60.19
62548;BME280;48602;45.192;5.722;2023-03-04T08:28:53;99694.66;;;8.08;60.09
62548;BME280;48602;45.192;5.722;2023-03-04T08:31:19;99690.22;;;8.10;60.17
62548;BME280;48602;45.192;5.722;2023-03-04T08:33:45;99689.34;;;8.11;60.19
62548;BME280;48602;45.192;5.722;2023-03-04T08:36:11;99689.25;;;8.16;60.04
62548;BME280;48602;45.192;5.722;2023-03-04T08:38:37;99692.69;;;8.19;60.34
62548;BME280;48602;45.192;5.722;2023-03-04T08:41:03;99692.59;;;8.22;60.08
62548;BME280;48602;45.192;5.722;2023-03-04T08:43:31;99689.00;;;8.26;60.20
62548;BME280;48602;45.192;5.722;2023-03-04T08:45:57;99692.50;;;8.27;59.95
62548;BME280;48602;45.192;5.722;2023-03-04T08:48:23;99692.50;;;8.27;60.05
62548;BME280;48602;45.192;5.722;2023-03-04T08:50:48;99701.22;;;8.29;59.88
62548;BME280;48602;45.192;5.722;2023-03-04T08:53:15;99695.16;;;8.25;59.76
62548;BME280;48602;45.192;5.722;2023-03-04T08:55:42;99697.78;;;8.25;60.17
62548;BME280;48602;45.192;5.722;2023-03-04T08:58:14;99703.00;;;8.27;60.09
62548;BME280;48602;45.192;5.722;2023-03-04T09:00:44;99703.81;;;8.32;59.92
62548;BME280;48602;45.192;5.722;2023-03-04T09:03:12;99695.91;;;8.33;59.88
62548;BME280;48602;45.192;5.722;2023-03-04T09:05:38;99695.84;;;8.36;60.00
62548;BME280;48602;45.192;5.722;2023-03-04T09:08:03;99698.38;;;8.39;59.64
62548;BME280;48602;45.192;5.722;2023-03-04T09:10:29;99700.00;;;8.45;59.82
62548;BME280;48602;45.192;5.722;2023-03-04T09:12:54;99698.19;;;8.49;59.70
62548;BME280;48602;45.192;5.722;2023-03-04T09:15:20;99696.34;;;8.54;59.70
62548;BME280;48602;45.192;5.722;2023-03-04T09:17:45;99697.97;;;8.58;59.62
62548;BME280;48602;45.192;5.722;2023-03-04T09:20:12;99703.16;;;8.61;59.41
62548;BME280;48602;45.192;5.722;2023-03-04T09:22:38;99703.06;;;8.65;59.27
62548;BME280;48602;45.192;5.722;2023-03-04T09:25:12;99697.72;;;8.70;59.40
62548;BME280;48602;45.192;5.722;2023-03-04T09:27:42;99698.47;;;8.73;59.23
62548;BME280;48602;45.192;5.722;2023-03-04T09:30:11;99700.13;;;8.78;59.13
62548;BME280;48602;45.192;5.722;2023-03-04T09:32:39;99701.78;;;8.83;59.45
62548;BME280;48602;45.192;5.722;2023-03-04T09:35:06;99699.06;;;8.86;59.30
62548;BME280;48602;45.192;5.722;2023-03-04T09:37:32;99699.84;;;8.90;58.86
62548;BME280;48602;45.192;5.722;2023-03-04T09:39:57;99695.44;;;8.90;59.01
62548;BME280;48602;45.192;5.722;2023-03-04T09:42:32;99695.38;;;8.93;58.93
62548;BME280;48602;45.192;5.722;2023-03-04T09:44:59;99697.94;;;8.96;59.17
62548;BME280;48602;45.192;5.722;2023-03-04T09:47:25;99694.41;;;8.97;58.79
62548;BME280;48602;45.192;5.722;2023-03-04T09:50:00;99692.59;;;8.99;58.66
62548;BME280;48602;45.192;5.722;2023-03-04T09:52:57;99694.19;;;9.05;58.78
62548;BME280;48602;45.192;5.722;2023-03-04T09:55:42;99691.53;;;9.06;58.81
62548;BME280;48602;45.192;5.722;2023-03-04T10:00:54;99696.59;;;9.16;58.41
62548;BME280;48602;45.192;5.722;2023-03-04T10:03:23;99690.38;;;9.18;58.63
62548;BME280;48602;45.192;5.722;2023-03-04T10:06:00;99687.72;;;9.20;58.65
62548;BME280;48602;45.192;5.722;2023-03-04T10:11:12;99677.03;;;9.26;58.25
62548;BME280;48602;45.192;5.722;2023-03-04T10:14:02;99677.81;;;9.29;58.27
62548;BME280;48602;45.192;5.722;2023-03-04T10:19:31;99673.22;;;9.37;57.95
62548;BME280;48602;45.192;5.722;2023-03-04T10:22:35;99678.31;;;9.43;57.88
62548;BME280;48602;45.192;5.722;2023-03-04T10:25:29;99674.66;;;9.49;57.43
62548;BME280;48602;45.192;5.722;2023-03-04T10:28:11;99667.56;;;9.53;57.41
62548;BME280;48602;45.192;5.722;2023-03-04T10:30:58;99666.56;;;9.55;57.18
62548;BME280;48602;45.192;5.722;2023-03-04T10:33:35;99669.97;;;9.60;57.25
62548;BME280;48602;45.192;5.722;2023-03-04T10:39:00;99662.56;;;9.73;56.75
62548;BME280;48602;45.192;5.722;2023-03-04T10:41:29;99664.31;;;9.74;56.67
62548;BME280;48602;45.192;5.722;2023-03-04T10:46:46;99666.41;;;9.92;56.26
62548;BME280;48602;45.192;5.722;2023-03-04T10:49:18;99662.63;;;10.02;56.38
62548;BME280;48602;45.192;5.722;2023-03-04T10:51:49;99660.56;;;10.12;55.91
62548;BME280;48602;45.192;5.722;2023-03-04T10:54:29;99665.66;;;10.20;55.70
62548;BME280;48602;45.192;5.722;2023-03-04T10:56:56;99658.41;;;10.26;55.71
62548;BME280;48602;45.192;5.722;2023-03-04T11:02:35;99661.34;;;10.45;55.09
62548;BME280;48602;45.192;5.722;2023-03-04T11:07:44;99651.28;;;10.58;54.86
62548;BME280;48602;45.192;5.722;2023-03-04T11:10:21;99659.09;;;10.61;54.52
62548;BME280;48602;45.192;5.722;2023-03-04T11:13:07;99652.84;;;10.65;54.39
62548;BME280;48602;45.192;5.722;2023-03-04T11:15:58;99646.66;;;10.66;54.36
62548;BME280;48602;45.192;5.722;2023-03-04T11:21:06;99647.19;;;10.75;54.12
62548;BME280;48602;45.192;5.722;2023-03-04T11:26:13;99640.81;;;10.82;53.11
62548;BME280;48602;45.192;5.722;2023-03-04T11:29:00;99637.13;;;10.88;53.17
62548;BME280;48602;45.192;5.722;2023-03-04T11:31:45;99636.91;;;10.94;52.92
62548;BME280;48602;45.192;5.722;2023-03-04T11:37:20;99627.09;;;10.99;52.73
62548;BME280;48602;45.192;5.722;2023-03-04T11:39:51;99618.03;;;11.06;52.79
62548;BME280;48602;45.192;5.722;2023-03-04T11:43:02;99620.47;;;11.12;52.04
62548;BME280;48602;45.192;5.722;2023-03-04T11:45:59;99618.44;;;11.21;51.99
62548;BME280;48602;45.192;5.722;2023-03-04T11:56:30;99616.19;;;11.35;51.53
62548;BME280;48602;45.192;5.722;2023-03-04T12:01:36;99616.06;;;11.38;51.17
62548;BME280;48602;45.192;5.722;2023-03-04T12:15:54;99597.84;;;11.30;50.19
62548;BME280;48602;45.192;5.722;2023-03-04T12:23:48;99593.78;;;11.22;49.31
62548;BME280;48602;45.192;5.722;2023-03-04T12:32:22;99587.06;;;11.11;48.88
62548;BME280;48602;45.192;5.722;2023-03-04T12:46:30;99570.31;;;11.12;48.65
62548;BME280;48602;45.192;5.722;2023-03-04T12:54:42;99565.53;;;10.99;48.88
62548;BME280;48602;45.192;5.722;2023-03-04T13:05:24;99554.84;;;11.03;48.84
62548;BME280;48602;45.192;5.722;2023-03-04T13:10:41;99557.47;;;11.03;48.87
62548;BME280;48602;45.192;5.722;2023-03-04T13:16:14;99554.41;;;11.15;49.14
62548;BME280;48602;45.192;5.722;2023-03-04T13:18:50;99552.50;;;11.19;49.16
62548;BME280;48602;45.192;5.722;2023-03-04T13:21:22;99558.66;;;11.19;49.13
62548;BME280;48602;45.192;5.722;2023-03-04T13:23:49;99549.94;;;11.17;49.25
62548;BME280;48602;45.192;5.722;2023-03-04T13:28:51;99538.34;;;11.22;49.44
62548;BME280;48602;45.192;5.722;2023-03-04T13:31:21;99543.38;;;11.28;49.32
62548;BME280;48602;45.192;5.722;2023-03-04T13:33:53;99544.84;;;11.36;49.48
62548;BME280;48602;45.192;5.722;2023-03-04T13:41:52;99532.00;;;11.50;48.89
62548;BME280;48602;45.192;5.722;2023-03-04T13:46:55;99527.41;;;11.56;49.26
62548;BME280;48602;45.192;5.722;2023-03-04T13:49:22;99522.03;;;11.57;49.19
62548;BME280;48602;45.192;5.722;2023-03-04T13:51:49;99525.44;;;11.61;48.90
62548;BME280;48602;45.192;5.722;2023-03-04T13:56:48;99522.91;;;11.58;49.03
62548;BME280;48602;45.192;5.722;2023-03-04T14:02:16;99516.75;;;11.57;49.07
62548;BME280;48602;45.192;5.722;2023-03-04T14:07:29;99515.34;;;11.72;49.00
62548;BME280;48602;45.192;5.722;2023-03-04T14:12:30;99513.44;;;11.75;48.28
62548;BME280;48602;45.192;5.722;2023-03-04T14:14:59;99504.78;;;11.72;48.87
62548;BME280;48602;45.192;5.722;2023-03-04T14:17:31;99496.84;;;11.72;48.72
62548;BME280;48602;45.192;5.722;2023-03-04T14:19:59;99498.47;;;11.76;48.98
62548;BME280;48602;45.192;5.722;2023-03-04T14:22:28;99499.06;;;11.84;48.78
62548;BME280;48602;45.192;5.722;2023-03-04T14:24:58;99498.06;;;11.86;48.55
62548;BME280;48602;45.192;5.722;2023-03-04T14:27:24;99491.81;;;11.89;48.53
62548;BME280;48602;45.192;5.722;2023-03-04T14:30:00;99489.78;;;11.96;48.48
62548;BME280;48602;45.192;5.722;2023-03-04T14:32:26;99486.16;;;11.98;48.34
62548;BME280;48602;45.192;5.722;2023-03-04T14:35:06;99481.66;;;12.00;47.90
62548;BME280;48602;45.192;5.722;2023-03-04T14:37:53;99479.81;;;12.02;47.93
62548;BME280;48602;45.192;5.722;2023-03-04T14:40:24;99485.84;;;12.06;47.90
62548;BME280;48602;45.192;5.722;2023-03-04T14:42:57;99476.81;;;12.11;47.89
62548;BME280;48602;45.192;5.722;2023-03-04T14:45:24;99475.75;;;12.15;47.82
62548;BME280;48602;45.192;5.722;2023-03-04T14:47:53;99469.38;;;12.21;47.55
62548;BME280;48602;45.192;5.722;2023-03-04T14:50:21;99471.00;;;12.23;47.47
62548;BME280;48602;45.192;5.722;2023-03-04T14:52:48;99466.44;;;12.27;47.38
62548;BME280;48602;45.192;5.722;2023-03-04T14:57:43;99463.50;;;12.35;47.06
62548;BME280;48602;45.192;5.722;2023-03-04T15:02:56;99466.63;;;12.44;47.07
62548;BME280;48602;45.192;5.722;2023-03-04T15:05:31;99468.28;;;12.47;46.58
62548;BME280;48602;45.192;5.722;2023-03-04T15:08:16;99462.78;;;12.51;46.50
62548;BME280;48602;45.192;5.722;2023-03-04T15:10:53;99460.22;;;12.50;46.47
62548;BME280;48602;45.192;5.722;2023-03-04T15:13:44;99450.63;;;12.47;46.46
62548;BME280;48602;45.192;5.722;2023-03-04T15:16:12;99456.84;;;12.46;46.40
62548;BME280;48602;45.192;5.722;2023-03-04T15:18:52;99442.69;;;12.47;46.63
62548;BME280;48602;45.192;5.722;2023-03-04T15:23:43;99444.59;;;12.44;46.65